createdAt,value
2023-05-01T00:01:24.684Z,43.88
2023-05-01T00:06:19.979Z,44.23
2023-05-01T00:08:47.724Z,43.50
2023-05-01T00:11:15.714Z,43.26
2023-05-01T00:13:43.318Z,43.12
2023-05-01T00:16:12.496Z,44.40
2023-05-01T00:18:40.319Z,44.29
2023-05-01T00:21:08.029Z,44.21
2023-05-01T00:23:35.632Z,44.63
2023-05-01T00:26:03.368Z,43.96
2023-05-01T00:28:31.349Z,44.40
2023-05-01T00:30:59.030Z,44.22
2023-05-01T00:33:28.035Z,43.82
2023-05-01T00:35:56.111Z,44.36
2023-05-01T00:38:24.306Z,43.83
2023-05-01T00:40:51.962Z,45.86
2023-05-01T00:43:19.643Z,45.05
2023-05-01T00:45:47.405Z,44.89
2023-05-01T00:48:15.176Z,44.93
2023-05-01T00:50:44.412Z,44.88
2023-05-01T00:53:12.309Z,44.25
2023-05-01T00:55:40.048Z,44.92
2023-05-01T00:58:07.722Z,44.34
2023-05-01T01:00:35.386Z,44.69
2023-05-01T01:03:04.536Z,44.46
2023-05-01T01:05:32.579Z,44.32
2023-05-01T01:08:05.066Z,44.66
2023-05-01T01:10:34.907Z,45.00
2023-05-01T01:13:04.365Z,45.37
2023-05-01T01:15:34.149Z,44.90
2023-05-01T01:18:05.207Z,45.89
2023-05-01T01:20:33.446Z,45.73
2023-05-01T01:23:05.711Z,47.13
2023-05-01T01:25:51.174Z,45.82
2023-05-01T01:28:24.007Z,45.96
2023-05-01T01:30:58.249Z,45.81
2023-05-01T01:33:41.052Z,46.13
2023-05-01T01:36:09.317Z,46.48
2023-05-01T01:38:37.628Z,45.83
2023-05-01T01:41:08.516Z,46.15
2023-05-01T01:43:38.388Z,45.76
2023-05-01T01:46:06.870Z,46.74
2023-05-01T01:48:35.103Z,47.81
2023-05-01T01:51:04.937Z,47.99
2023-05-01T01:53:32.616Z,47.45
2023-05-01T01:56:03.046Z,47.91
2023-05-01T01:58:31.503Z,49.51
2023-05-01T02:00:59.231Z,47.52
2023-05-01T02:03:27.025Z,47.31
2023-05-01T02:05:55.040Z,48.31
2023-05-01T02:08:24.029Z,50.19
2023-05-01T02:10:51.764Z,48.34
2023-05-01T02:13:19.898Z,47.58
2023-05-01T02:15:49.555Z,49.71
2023-05-01T02:18:17.250Z,49.68
2023-05-01T02:20:45.351Z,49.05
2023-05-01T02:23:13.048Z,48.96
2023-05-01T02:25:42.029Z,48.45
2023-05-01T02:28:10.398Z,50.27
2023-05-01T02:30:39.024Z,53.44
2023-05-01T02:33:07.461Z,51.13
2023-05-01T02:35:39.699Z,50.15
2023-05-01T02:38:07.478Z,49.95
2023-05-01T02:40:35.150Z,49.53
2023-05-01T02:43:04.314Z,49.55
2023-05-01T02:45:32.015Z,50.60
2023-05-01T02:48:00.468Z,49.42
2023-05-01T02:50:28.189Z,49.71
2023-05-01T02:52:56.092Z,49.56
2023-05-01T02:55:37.183Z,52.03
2023-05-01T02:58:06.271Z,51.07
2023-05-01T03:00:35.178Z,50.09
2023-05-01T03:03:02.851Z,51.00
2023-05-01T03:05:30.576Z,53.09
2023-05-01T03:07:58.262Z,51.87
2023-05-01T03:10:25.896Z,50.60
2023-05-01T03:12:53.552Z,50.85
2023-05-01T03:15:22.585Z,50.44
2023-05-01T03:17:50.407Z,51.11
2023-05-01T03:20:18.124Z,51.24
2023-05-01T03:22:45.911Z,49.66
2023-05-01T03:25:14.082Z,49.51
2023-05-01T03:27:41.782Z,51.30
2023-05-01T03:30:11.179Z,53.16
2023-05-01T03:32:43.303Z,50.64
2023-05-01T03:35:19.097Z,49.48
2023-05-01T03:37:46.906Z,49.03
2023-05-01T03:40:23.720Z,47.97
2023-05-01T03:43:09.905Z,47.67
2023-05-01T03:45:38.026Z,47.60
2023-05-01T03:48:07.684Z,47.15
2023-05-01T03:50:35.421Z,48.22
2023-05-01T03:53:03.098Z,47.16
2023-05-01T03:55:30.823Z,48.25
2023-05-01T03:57:58.681Z,49.47
2023-05-01T04:00:26.349Z,48.17
2023-05-01T04:02:54.191Z,46.84
2023-05-01T04:05:26.483Z,47.98
2023-05-01T04:07:59.696Z,49.48
2023-05-01T04:10:27.424Z,46.62
2023-05-01T04:13:01.923Z,49.42
2023-05-01T04:15:29.560Z,49.76
2023-05-01T04:17:57.726Z,48.41
2023-05-01T04:20:26.928Z,48.00
2023-05-01T04:22:55.434Z,47.38
2023-05-01T04:25:23.136Z,48.47
2023-05-01T04:27:53.859Z,45.75
2023-05-01T04:30:21.588Z,49.31
2023-05-01T04:32:49.429Z,52.01
2023-05-01T04:35:17.135Z,51.20
2023-05-01T04:37:47.196Z,54.94
2023-05-01T04:40:15.112Z,56.21
2023-05-01T04:42:43.831Z,51.29
2023-05-01T04:45:14.719Z,54.49
2023-05-01T04:47:42.528Z,54.97
2023-05-01T04:50:10.808Z,50.03
2023-05-01T04:52:38.586Z,55.89
2023-05-01T04:55:09.208Z,58.26
2023-05-01T04:57:42.358Z,55.01
2023-05-01T05:00:10.388Z,52.47
2023-05-01T05:02:47.214Z,52.69
2023-05-01T05:05:16.327Z,48.98
2023-05-01T05:07:44.029Z,48.64
2023-05-01T05:10:28.265Z,49.86
2023-05-01T05:13:16.698Z,50.88
2023-05-01T05:15:45.684Z,48.66
2023-05-01T05:18:13.533Z,51.26
2023-05-01T05:20:41.272Z,54.82
2023-05-01T05:23:09.515Z,50.47
2023-05-01T05:25:38.668Z,52.66
2023-05-01T05:28:06.297Z,53.43
2023-05-01T05:30:34.083Z,52.37
2023-05-01T05:33:05.296Z,50.94
2023-05-01T05:35:33.040Z,50.22
2023-05-01T05:38:00.829Z,47.95
2023-05-01T05:40:29.703Z,44.36
2023-05-01T05:43:00.399Z,45.03
2023-05-01T05:45:30.153Z,47.45
2023-05-01T05:47:58.729Z,47.38
2023-05-01T05:50:27.745Z,47.85
2023-05-01T05:52:55.542Z,45.18
2023-05-01T05:55:23.780Z,45.34
2023-05-01T05:58:03.355Z,44.69
2023-05-01T06:00:31.881Z,46.07
2023-05-01T06:03:03.835Z,43.75
2023-05-01T06:05:33.874Z,43.54
2023-05-01T06:08:01.586Z,43.53
2023-05-01T06:10:29.231Z,45.48
2023-05-01T06:13:04.141Z,44.35
2023-05-01T06:15:45.262Z,43.95
2023-05-01T06:18:13.232Z,43.59
2023-05-01T06:20:40.952Z,46.22
2023-05-01T06:23:09.604Z,43.64
2023-05-01T06:25:51.664Z,42.71
2023-05-01T06:28:19.388Z,42.68
2023-05-01T06:30:48.785Z,41.06
2023-05-01T06:33:18.264Z,44.62
2023-05-01T06:35:52.117Z,44.96
2023-05-01T06:38:20.172Z,49.26
2023-05-01T06:40:49.668Z,45.67
2023-05-01T06:43:17.333Z,39.61
2023-05-01T06:45:46.440Z,36.86
2023-05-01T06:48:15.599Z,42.95
2023-05-01T06:50:43.246Z,42.94
2023-05-01T06:53:10.922Z,40.75
2023-05-01T06:55:38.702Z,41.28
2023-05-01T06:58:12.562Z,41.61
2023-05-01T07:00:50.044Z,42.15
2023-05-01T07:03:19.282Z,42.34
2023-05-01T07:05:47.070Z,41.86
2023-05-01T07:08:14.686Z,39.70
2023-05-01T07:10:42.560Z,37.08
2023-05-01T07:13:10.325Z,40.38
2023-05-01T07:15:38.051Z,38.05
2023-05-01T07:18:06.790Z,40.12
2023-05-01T07:20:35.884Z,40.92
2023-05-01T07:23:05.308Z,40.33
2023-05-01T07:25:34.246Z,40.73
2023-05-01T07:28:04.442Z,40.59
2023-05-01T07:30:33.038Z,37.54
2023-05-01T07:33:00.884Z,38.25
2023-05-01T07:35:28.711Z,41.21
2023-05-01T07:37:57.734Z,38.74
2023-05-01T07:40:25.410Z,37.92
2023-05-01T07:42:54.592Z,41.61
2023-05-01T07:45:22.471Z,38.11
2023-05-01T07:47:50.259Z,39.17
2023-05-01T07:50:18.113Z,34.15
2023-05-01T07:52:46.543Z,38.03
2023-05-01T07:55:15.828Z,37.32
2023-05-01T07:57:43.471Z,37.90
2023-05-01T08:00:11.815Z,36.06
2023-05-01T08:02:42.386Z,37.22
2023-05-01T08:05:12.228Z,37.71
2023-05-01T08:07:39.867Z,38.90
2023-05-01T08:10:08.075Z,37.28
2023-05-01T08:12:37.092Z,36.30
2023-05-01T08:15:05.223Z,37.22
2023-05-01T08:17:32.874Z,38.83
2023-05-01T08:20:01.406Z,36.74
2023-05-01T08:22:29.091Z,38.37
2023-05-01T08:24:56.846Z,36.54
2023-05-01T08:27:24.472Z,36.73
2023-05-01T08:29:53.826Z,34.26
2023-05-01T08:32:21.548Z,32.38
2023-05-01T08:34:49.228Z,32.66
2023-05-01T08:37:18.862Z,34.76
2023-05-01T08:39:46.550Z,33.77
2023-05-01T08:42:14.631Z,33.47
2023-05-01T08:44:42.277Z,32.62
2023-05-01T08:47:14.022Z,30.29
2023-05-01T08:49:42.244Z,30.72
2023-05-01T08:52:10.120Z,31.48
2023-05-01T08:54:38.968Z,31.61
2023-05-01T08:57:09.008Z,29.37
2023-05-01T08:59:38.360Z,32.15
2023-05-01T09:02:06.449Z,32.56
2023-05-01T09:04:35.952Z,31.55
2023-05-01T09:07:03.625Z,31.24
2023-05-01T09:09:31.629Z,32.57
2023-05-01T09:12:01.221Z,29.50
2023-05-01T09:14:29.789Z,32.62
2023-05-01T09:16:57.473Z,31.28
2023-05-01T09:19:25.728Z,32.40
2023-05-01T09:21:55.732Z,31.18
2023-05-01T09:24:24.217Z,30.85
2023-05-01T09:26:53.689Z,31.59
2023-05-01T09:29:39.822Z,32.82
2023-05-01T09:32:17.547Z,33.38
2023-05-01T09:34:45.614Z,34.00
2023-05-01T09:37:16.366Z,32.07
2023-05-01T09:39:44.017Z,29.98
2023-05-01T09:42:11.769Z,30.99
2023-05-01T09:44:43.136Z,32.64
2023-05-01T09:47:10.859Z,31.95
2023-05-01T09:49:49.316Z,30.21
2023-05-01T09:52:18.382Z,31.19
2023-05-01T09:54:46.567Z,31.80
2023-05-01T09:57:14.242Z,30.78
2023-05-01T09:59:41.895Z,32.19
2023-05-01T10:02:09.770Z,30.72
2023-05-01T10:04:37.396Z,34.35
2023-05-01T10:07:14.676Z,32.33
2023-05-01T10:09:43.694Z,32.48
2023-05-01T10:12:11.388Z,31.62
2023-05-01T10:14:50.637Z,30.07
2023-05-01T10:17:19.596Z,31.82
2023-05-01T10:19:47.669Z,32.20
2023-05-01T10:22:15.510Z,33.24
2023-05-01T10:24:46.042Z,30.09
2023-05-01T10:27:13.955Z,30.73
2023-05-01T10:29:41.759Z,30.61
2023-05-01T10:32:09.691Z,30.22
2023-05-01T10:34:38.591Z,31.38
2023-05-01T10:37:07.791Z,31.33
2023-05-01T10:39:36.113Z,31.47
2023-05-01T10:42:05.865Z,31.04
2023-05-01T10:44:34.741Z,31.17
2023-05-01T10:47:17.402Z,30.79
2023-05-01T10:50:04.291Z,29.12
2023-05-01T10:52:32.033Z,28.37
2023-05-01T10:55:14.562Z,29.17
2023-05-01T10:57:44.263Z,29.16
2023-05-01T11:00:12.110Z,27.68
2023-05-01T11:02:40.225Z,27.18
2023-05-01T11:05:08.194Z,29.00
2023-05-01T11:07:36.140Z,28.64
2023-05-01T11:10:03.800Z,28.88
2023-05-01T11:12:52.542Z,30.57
2023-05-01T11:15:31.484Z,30.59
2023-05-01T11:17:59.504Z,27.51
2023-05-01T11:20:45.752Z,27.76
2023-05-01T11:23:14.245Z,28.90
2023-05-01T11:25:42.009Z,28.38
2023-05-01T11:28:09.765Z,29.19
2023-05-01T11:30:38.901Z,28.81
2023-05-01T11:33:09.126Z,29.50
2023-05-01T11:35:37.982Z,29.31
2023-05-01T11:38:05.621Z,26.72
2023-05-01T11:40:34.264Z,25.80
2023-05-01T11:43:02.368Z,23.95
2023-05-01T11:45:30.166Z,25.06
2023-05-01T11:48:02.008Z,26.49
2023-05-01T11:50:35.565Z,26.14
2023-05-01T11:53:03.399Z,25.59
2023-05-01T11:55:34.299Z,24.77
2023-05-01T11:58:02.090Z,23.53
2023-05-01T12:00:30.131Z,21.13
2023-05-01T12:03:02.714Z,21.28
2023-05-01T12:05:31.181Z,24.22
2023-05-01T12:08:12.268Z,24.08
2023-05-01T12:10:40.543Z,25.67
2023-05-01T12:13:08.640Z,26.93
2023-05-01T12:15:37.653Z,25.75
2023-05-01T12:18:06.940Z,24.93
2023-05-01T12:20:38.448Z,24.37
2023-05-01T12:23:06.806Z,24.80
2023-05-01T12:25:35.039Z,24.14
2023-05-01T12:28:03.299Z,24.43
2023-05-01T12:30:30.939Z,24.20
2023-05-01T12:32:58.977Z,24.50
2023-05-01T12:35:33.941Z,23.65
2023-05-01T12:38:01.659Z,25.05
2023-05-01T12:40:29.302Z,24.47
2023-05-01T12:42:57.899Z,24.06
2023-05-01T12:45:25.786Z,21.82
2023-05-01T12:47:53.396Z,22.92
2023-05-01T12:50:21.885Z,23.73
2023-05-01T12:52:50.978Z,21.94
2023-05-01T12:55:18.819Z,21.52
2023-05-01T12:57:53.478Z,23.50
2023-05-01T13:00:21.762Z,23.92
2023-05-01T13:02:49.567Z,23.75
2023-05-01T13:05:17.288Z,22.51
2023-05-01T13:07:49.093Z,24.77
2023-05-01T13:10:19.111Z,25.00
2023-05-01T13:12:47.362Z,22.56
2023-05-01T13:15:21.129Z,23.25
2023-05-01T13:17:48.998Z,24.51
2023-05-01T13:20:17.160Z,23.85
2023-05-01T13:22:44.830Z,23.21
2023-05-01T13:25:17.507Z,24.70
2023-05-01T13:27:49.775Z,24.64
2023-05-01T13:30:17.691Z,22.85
2023-05-01T13:32:45.348Z,22.07
2023-05-01T13:35:13.121Z,22.68
2023-05-01T13:37:40.960Z,24.88
2023-05-01T13:40:09.328Z,21.29
2023-05-01T13:42:36.916Z,21.13
2023-05-01T13:45:06.522Z,22.23
2023-05-01T13:47:34.205Z,21.85
2023-05-01T13:50:02.156Z,20.45
2023-05-01T13:52:30.015Z,22.77
2023-05-01T13:54:58.325Z,18.52
2023-05-01T13:57:26.258Z,16.19
2023-05-01T13:59:53.886Z,15.37
2023-05-01T14:02:25.502Z,18.96
2023-05-01T14:04:53.157Z,19.58
2023-05-01T14:07:21.247Z,20.71
2023-05-01T14:09:51.129Z,21.11
2023-05-01T14:12:18.824Z,20.79
2023-05-01T14:14:48.344Z,22.83
2023-05-01T14:17:16.335Z,21.74
2023-05-01T14:19:45.494Z,20.42
2023-05-01T14:22:13.210Z,19.78
2023-05-01T14:24:41.409Z,20.88
2023-05-01T14:27:09.546Z,21.34
2023-05-01T14:29:37.369Z,23.27
2023-05-01T14:32:05.330Z,20.15
2023-05-01T14:34:33.479Z,21.24
2023-05-01T14:37:02.520Z,20.59
2023-05-01T14:39:30.682Z,21.01
2023-05-01T14:41:59.316Z,20.46
2023-05-01T14:44:27.489Z,22.55
2023-05-01T14:46:55.268Z,23.39
2023-05-01T14:49:24.416Z,22.86
2023-05-01T14:51:52.592Z,23.68
2023-05-01T14:54:21.637Z,23.51
2023-05-01T14:56:49.563Z,22.25
2023-05-01T14:59:17.475Z,22.87
2023-05-01T15:01:45.086Z,22.29
2023-05-01T15:04:13.073Z,22.79
2023-05-01T15:06:40.849Z,22.49
2023-05-01T15:09:08.442Z,22.57
2023-05-01T15:11:37.428Z,23.21
2023-05-01T15:14:05.880Z,23.39
2023-05-01T15:16:33.710Z,23.58
2023-05-01T15:19:01.439Z,23.69
2023-05-01T15:21:29.065Z,23.36
2023-05-01T15:23:56.650Z,22.66
2023-05-01T15:26:24.203Z,23.39
2023-05-01T15:28:53.251Z,24.66
2023-05-01T15:31:20.966Z,25.60
2023-05-01T15:33:48.563Z,24.72
2023-05-01T15:36:16.686Z,23.66
2023-05-01T15:38:44.297Z,23.83
2023-05-01T15:41:11.918Z,24.07
2023-05-01T15:43:39.566Z,25.24
2023-05-01T15:46:08.663Z,24.50
2023-05-01T15:48:36.370Z,25.40
2023-05-01T15:51:04.488Z,24.50
2023-05-01T15:53:32.184Z,25.80
2023-05-01T15:55:59.804Z,24.68
2023-05-01T15:58:27.545Z,24.78
2023-05-01T16:00:55.222Z,23.85
2023-05-01T16:03:24.457Z,26.64
2023-05-01T16:05:52.457Z,26.75
2023-05-01T16:08:20.079Z,25.08
2023-05-01T16:10:47.739Z,26.09
2023-05-01T16:13:15.404Z,26.46
2023-05-01T16:15:42.943Z,28.83
2023-05-01T16:18:11.079Z,30.29
2023-05-01T16:20:42.844Z,28.12
2023-05-01T16:23:10.489Z,27.38
2023-05-01T16:25:38.085Z,28.43
2023-05-01T16:28:06.282Z,25.85
2023-05-01T16:30:34.002Z,29.60
2023-05-01T16:33:02.441Z,29.04
2023-05-01T16:35:30.163Z,30.04
2023-05-01T16:38:00.083Z,30.21
2023-05-01T16:40:27.719Z,25.73
2023-05-01T16:42:56.157Z,25.95
2023-05-01T16:45:23.919Z,28.24
2023-05-01T16:47:51.714Z,24.56
2023-05-01T16:50:19.544Z,24.84
2023-05-01T16:52:47.187Z,27.46
2023-05-01T16:58:08.002Z,21.29
2023-05-01T17:00:35.834Z,19.32
2023-05-01T17:03:03.602Z,19.13
2023-05-01T17:05:31.393Z,18.12
2023-05-01T17:07:59.149Z,18.19
2023-05-01T17:10:26.910Z,18.42
2023-05-01T17:12:54.593Z,18.54
2023-05-01T17:15:23.942Z,18.69
2023-05-01T17:17:51.596Z,19.21
2023-05-01T17:20:19.392Z,19.02
2023-05-01T17:22:47.034Z,19.25
2023-05-01T17:25:15.068Z,19.79
2023-05-01T17:27:42.817Z,19.80
2023-05-01T17:30:10.852Z,20.16
2023-05-01T17:32:39.915Z,20.71
2023-05-01T17:35:08.163Z,20.96
2023-05-01T17:37:39.632Z,21.19
2023-05-01T17:40:08.844Z,21.01
2023-05-01T17:42:37.238Z,20.99
2023-05-01T17:45:07.282Z,21.40
2023-05-01T17:47:35.015Z,21.50
2023-05-01T17:50:05.463Z,21.51
2023-05-01T17:52:33.111Z,22.05
2023-05-01T17:55:00.706Z,22.26
2023-05-01T17:57:28.350Z,22.59
2023-05-01T17:59:56.762Z,22.43
2023-05-01T18:02:25.177Z,23.14
2023-05-01T18:04:53.854Z,23.21
2023-05-01T18:07:23.060Z,23.50
2023-05-01T18:09:50.733Z,24.28
2023-05-01T18:12:19.080Z,24.38
2023-05-01T18:14:46.637Z,24.31
2023-05-01T18:17:14.381Z,24.70
2023-05-01T18:19:41.962Z,24.75
2023-05-01T18:22:09.607Z,25.12
2023-05-01T18:24:38.647Z,25.11
2023-05-01T18:27:06.306Z,25.42
2023-05-01T18:29:34.004Z,25.95
2023-05-01T18:32:01.778Z,26.25
2023-05-01T18:34:29.525Z,26.42
2023-05-01T18:36:57.247Z,26.76
2023-05-01T18:39:24.924Z,26.66
2023-05-01T18:41:54.938Z,26.70
2023-05-01T18:44:23.090Z,26.68
2023-05-01T18:46:50.868Z,26.99
2023-05-01T18:49:23.322Z,27.01
2023-05-01T18:51:51.024Z,27.19
2023-05-01T18:54:18.904Z,26.95
2023-05-01T18:56:46.614Z,27.45
2023-05-01T18:59:16.838Z,27.98
2023-05-01T19:01:44.551Z,27.70
2023-05-01T19:04:12.292Z,27.82
2023-05-01T19:06:40.955Z,28.49
2023-05-01T19:09:08.709Z,28.81
2023-05-01T19:11:36.402Z,28.62
2023-05-01T19:14:04.057Z,28.95
2023-05-01T19:16:33.116Z,29.17
2023-05-01T19:19:00.804Z,29.32
2023-05-01T19:21:28.951Z,29.40
2023-05-01T19:23:56.580Z,29.44
2023-05-01T19:26:24.267Z,29.13
2023-05-01T19:28:51.961Z,29.38
2023-05-01T19:31:19.976Z,29.42
2023-05-01T19:33:49.155Z,29.36
2023-05-01T19:36:17.010Z,29.09
2023-05-01T19:38:45.456Z,29.56
2023-05-01T19:41:13.473Z,29.86
2023-05-01T19:43:41.453Z,29.98
2023-05-01T19:46:09.580Z,30.33
2023-05-01T19:48:37.578Z,30.12
2023-05-01T19:51:06.712Z,29.94
2023-05-01T19:53:34.650Z,30.40
2023-05-01T19:56:02.310Z,30.45
2023-05-01T19:58:30.017Z,30.45
2023-05-01T20:00:59.808Z,30.46
2023-05-01T20:03:27.617Z,30.53
2023-05-01T20:05:55.607Z,30.62
2023-05-01T20:08:24.664Z,30.98
2023-05-01T20:10:52.381Z,30.92
2023-05-01T20:13:19.970Z,30.88
2023-05-01T20:15:47.606Z,31.19
2023-05-01T20:18:16.688Z,31.15
2023-05-01T20:20:44.439Z,30.23
2023-05-01T20:23:12.756Z,30.11
2023-05-01T20:25:42.214Z,29.72
2023-05-01T20:28:10.180Z,29.78
2023-05-01T20:30:38.373Z,29.50
2023-05-01T20:33:06.274Z,29.77
2023-05-01T20:35:34.888Z,29.86
2023-05-01T20:38:02.978Z,29.65
2023-05-01T20:40:31.861Z,29.40
2023-05-01T20:43:01.201Z,29.02
2023-05-01T20:45:28.984Z,28.99
2023-05-01T20:47:57.490Z,29.13
2023-05-01T20:50:25.789Z,28.75
2023-05-01T20:52:54.835Z,28.91
2023-05-01T20:55:22.612Z,29.04
2023-05-01T20:57:50.296Z,29.09
2023-05-01T21:00:19.374Z,28.87
2023-05-01T21:02:47.224Z,28.99
2023-05-01T21:05:16.260Z,29.76
2023-05-01T21:07:43.959Z,30.18
2023-05-01T21:10:14.156Z,30.09
2023-05-01T21:12:42.577Z,30.25
2023-05-01T21:15:11.032Z,30.88
2023-05-01T21:17:40.669Z,30.85
2023-05-01T21:20:10.658Z,30.80
2023-05-01T21:22:38.440Z,30.38
2023-05-01T21:25:07.173Z,30.19
2023-05-01T21:27:34.859Z,30.09
2023-05-01T21:30:02.739Z,29.47
2023-05-01T21:32:32.315Z,29.14
2023-05-01T21:35:01.442Z,28.84
2023-05-01T21:37:29.360Z,28.49
2023-05-01T21:39:58.480Z,28.37
2023-05-01T21:42:27.978Z,28.02
2023-05-01T21:44:55.715Z,27.90
2023-05-01T21:47:23.430Z,27.93
2023-05-01T21:49:51.206Z,27.98
2023-05-01T21:52:20.281Z,27.91
2023-05-01T21:54:47.982Z,27.82
2023-05-01T21:57:15.660Z,27.57
2023-05-01T21:59:45.040Z,27.69
2023-05-01T22:02:12.914Z,27.89
2023-05-01T22:04:40.694Z,27.95
2023-05-01T22:07:08.414Z,27.92
2023-05-01T22:09:38.002Z,27.87
2023-05-01T22:12:05.728Z,27.66
2023-05-01T22:14:43.976Z,27.48
2023-05-01T22:17:14.703Z,26.94
2023-05-01T22:19:42.618Z,27.13
2023-05-01T22:22:10.288Z,26.95
2023-05-01T22:24:39.759Z,27.29
2023-05-01T22:27:07.453Z,27.15
2023-05-01T22:29:35.146Z,26.97
2023-05-01T22:32:05.623Z,26.63
2023-05-01T22:34:33.230Z,26.72
2023-05-01T22:37:00.834Z,26.56
2023-05-01T22:39:28.519Z,26.99
2023-05-01T22:41:58.059Z,26.77
2023-05-01T22:44:25.728Z,26.72
2023-05-01T22:46:53.352Z,27.23
2023-05-01T22:49:23.326Z,26.72
2023-05-01T22:51:51.015Z,26.08
2023-05-01T22:54:18.585Z,26.34
2023-05-01T22:56:46.250Z,26.15
2023-05-01T22:59:15.268Z,26.77
2023-05-01T23:01:42.953Z,26.87
2023-05-01T23:04:10.797Z,26.39
2023-05-01T23:06:39.228Z,27.16
2023-05-01T23:09:06.944Z,27.29
2023-05-01T23:11:34.853Z,27.80
2023-05-01T23:14:02.472Z,27.82
2023-05-01T23:16:32.683Z,26.77
2023-05-01T23:19:00.326Z,26.84
2023-05-01T23:21:27.990Z,26.65
2023-05-01T23:23:55.622Z,25.78
2023-05-01T23:26:24.961Z,26.09
2023-05-01T23:28:52.816Z,26.07
2023-05-01T23:31:22.555Z,26.54
2023-05-01T23:33:51.725Z,25.67
2023-05-01T23:36:19.369Z,25.70
2023-05-01T23:38:46.986Z,26.45
2023-05-01T23:41:14.650Z,26.85
2023-05-01T23:43:42.404Z,26.00
2023-05-01T23:46:10.033Z,25.49
2023-05-01T23:48:37.655Z,26.47
2023-05-01T23:51:06.759Z,25.50
2023-05-01T23:53:34.381Z,26.39
2023-05-01T23:56:02.140Z,26.21
2023-05-01T23:58:29.757Z,25.82
